createdAt,value
2022-09-11T00:01:08.455Z,98137.94
2022-09-11T00:03:35.203Z,98143.13
2022-09-11T00:06:06.774Z,98150.00
2022-09-11T00:08:33.808Z,98138.63
2022-09-11T00:11:05.738Z,98147.19
2022-09-11T00:13:32.317Z,98141.06
2022-09-11T00:15:59.548Z,98144.53
2022-09-11T00:18:29.411Z,98135.81
2022-09-11T00:20:58.009Z,98125.03
2022-09-11T00:23:27.371Z,98125.19
2022-09-11T00:25:54.100Z,98124.16
2022-09-11T00:28:24.995Z,98114.78
2022-09-11T00:31:07.562Z,98121.03
2022-09-11T00:33:35.599Z,98117.72
2022-09-11T00:36:08.668Z,98123.53
2022-09-11T00:38:37.484Z,98117.47
2022-09-11T00:41:08.382Z,98129.59
2022-09-11T00:43:55.733Z,98122.19
2022-09-11T00:46:26.193Z,98122.22
2022-09-11T00:48:53.188Z,98128.97
2022-09-11T00:51:27.315Z,98120.41
2022-09-11T00:53:58.350Z,98121.66
2022-09-11T00:56:29.226Z,98116.41
2022-09-11T00:58:57.926Z,98119.69
2022-09-11T01:01:24.696Z,98127.38
2022-09-11T01:03:51.274Z,98122.81
2022-09-11T01:06:21.016Z,98119.34
2022-09-11T01:08:47.703Z,98133.38
2022-09-11T01:11:29.516Z,98131.25
2022-09-11T01:14:17.118Z,98137.94
2022-09-11T01:17:02.717Z,98124.16
2022-09-11T01:19:46.487Z,98121.38
2022-09-11T01:22:34.424Z,98122.03
2022-09-11T01:25:22.843Z,98131.78
2022-09-11T01:27:52.413Z,98124.88
2022-09-11T01:30:21.601Z,98122.91
2022-09-11T01:32:57.076Z,98128.88
2022-09-11T01:35:54.874Z,98126.13
2022-09-11T01:38:24.372Z,98129.75
2022-09-11T01:40:51.333Z,98136.50
2022-09-11T01:43:27.355Z,98125.16
2022-09-11T01:45:55.446Z,98132.59
2022-09-11T01:48:27.089Z,98133.69
2022-09-11T01:50:57.122Z,98125.69
2022-09-11T01:53:29.563Z,98130.25
2022-09-11T01:56:05.465Z,98125.97
2022-09-11T01:58:36.428Z,98118.09
2022-09-11T02:01:10.208Z,98126.75
2022-09-11T02:03:42.487Z,98125.81
2022-09-11T02:06:21.676Z,98122.13
2022-09-11T02:08:53.667Z,98125.56
2022-09-11T02:11:21.099Z,98125.41
2022-09-11T02:13:58.685Z,98130.16
2022-09-11T02:16:39.921Z,98120.53
2022-09-11T02:19:11.465Z,98126.81
2022-09-11T02:21:38.191Z,98133.47
2022-09-11T02:24:05.040Z,98123.88
2022-09-11T02:26:38.743Z,98117.53
2022-09-11T02:29:06.008Z,98120.13
2022-09-11T02:31:33.684Z,98115.72
2022-09-11T02:34:00.858Z,98114.09
2022-09-11T02:36:39.456Z,98121.88
2022-09-11T02:39:12.073Z,98104.31
2022-09-11T02:42:00.552Z,98107.84
2022-09-11T02:44:38.873Z,98109.81
2022-09-11T02:47:17.967Z,98113.47
2022-09-11T02:50:02.271Z,98107.63
2022-09-11T02:52:36.012Z,98106.41
2022-09-11T02:55:28.557Z,98109.28
2022-09-11T02:58:13.158Z,98109.84
2022-09-11T03:00:40.478Z,98110.69
2022-09-11T03:03:07.517Z,98105.66
2022-09-11T03:05:34.642Z,98108.16
2022-09-11T03:08:04.438Z,98110.69
2022-09-11T03:10:30.961Z,98108.25
2022-09-11T03:12:59.686Z,98112.50
2022-09-11T03:15:27.042Z,98109.00
2022-09-11T03:17:53.678Z,98106.53
2022-09-11T03:20:21.997Z,98106.34
2022-09-11T03:22:48.648Z,98106.28
2022-09-11T03:25:15.815Z,98115.09
2022-09-11T03:27:43.125Z,98108.88
2022-09-11T03:30:10.396Z,98109.00
2022-09-11T03:32:36.954Z,98110.16
2022-09-11T03:35:03.613Z,98110.00
2022-09-11T03:37:30.233Z,98109.00
2022-09-11T03:39:56.817Z,98109.00
2022-09-11T03:42:23.410Z,98112.34
2022-09-11T03:44:49.947Z,98110.00
2022-09-11T03:47:16.485Z,98114.25
2022-09-11T03:49:43.021Z,98108.31
2022-09-11T03:52:09.561Z,98114.34
2022-09-11T03:54:36.129Z,98111.13
2022-09-11T03:57:03.158Z,98115.41
2022-09-11T03:59:29.734Z,98115.41
2022-09-11T04:01:56.311Z,98122.75
2022-09-11T04:04:23.324Z,98121.97
2022-09-11T04:06:50.041Z,98120.94
2022-09-11T04:09:17.291Z,98122.91
2022-09-11T04:11:43.830Z,98122.47
2022-09-11T04:14:10.403Z,98120.94
2022-09-11T04:16:37.155Z,98119.25
2022-09-11T04:19:04.310Z,98120.69
2022-09-11T04:21:31.883Z,98114.69
2022-09-11T04:24:00.213Z,98111.94
2022-09-11T04:26:29.304Z,98112.00
2022-09-11T04:28:55.871Z,98114.81
2022-09-11T04:31:22.825Z,98117.84
2022-09-11T04:33:49.787Z,98118.28
2022-09-11T04:36:18.673Z,98126.56
2022-09-11T04:38:46.215Z,98130.06
2022-09-11T04:41:14.317Z,98123.69
2022-09-11T04:43:41.436Z,98120.94
2022-09-11T04:46:11.495Z,98123.53
2022-09-11T04:48:43.757Z,98120.84
2022-09-11T04:51:11.025Z,98121.47
2022-09-11T04:53:38.099Z,98122.47
2022-09-11T04:56:10.167Z,98123.38
2022-09-11T04:58:36.840Z,98131.16
2022-09-11T05:01:08.862Z,98132.00
2022-09-11T05:03:35.545Z,98136.06
2022-09-11T05:06:10.288Z,98130.75
2022-09-11T05:08:37.438Z,98127.94
2022-09-11T05:11:08.261Z,98127.25
2022-09-11T05:13:36.560Z,98130.53
2022-09-11T05:16:12.419Z,98132.16
2022-09-11T05:18:40.389Z,98131.47
2022-09-11T05:21:15.057Z,98126.03
2022-09-11T05:23:42.645Z,98140.41
2022-09-11T05:26:15.144Z,98132.31
2022-09-11T05:28:41.918Z,98134.91
2022-09-11T05:31:16.760Z,98126.09
2022-09-11T05:33:46.746Z,98118.03
2022-09-11T05:36:15.542Z,98135.00
2022-09-11T05:38:42.146Z,98134.59
2022-09-11T05:41:13.769Z,98132.47
2022-09-11T05:43:41.825Z,98133.66
2022-09-11T05:46:11.906Z,98140.41
2022-09-11T05:48:38.969Z,98141.63
2022-09-11T05:51:21.415Z,98140.31
2022-09-11T05:53:52.048Z,98143.97
2022-09-11T05:56:21.436Z,98138.63
2022-09-11T05:58:49.255Z,98140.94
2022-09-11T06:01:18.786Z,98141.63
2022-09-11T06:03:48.532Z,98142.59
2022-09-11T06:06:17.095Z,98148.66
2022-09-11T06:08:44.290Z,98142.34
2022-09-11T06:11:13.217Z,98151.78
2022-09-11T06:13:42.595Z,98141.22
2022-09-11T06:16:18.021Z,98150.91
2022-09-11T06:18:49.657Z,98154.63
2022-09-11T06:21:27.338Z,98157.13
2022-09-11T06:23:53.987Z,98158.56
2022-09-11T06:26:23.526Z,98159.94
2022-09-11T06:28:51.336Z,98156.63
2022-09-11T06:31:22.883Z,98158.28
2022-09-11T06:33:51.093Z,98147.72
2022-09-11T06:36:20.051Z,98161.69
2022-09-11T06:38:47.028Z,98151.38
2022-09-11T06:41:15.507Z,98153.88
2022-09-11T06:43:43.407Z,98158.38
2022-09-11T06:46:13.396Z,98160.22
2022-09-11T06:48:40.897Z,98155.22
2022-09-11T06:51:11.402Z,98153.16
2022-09-11T06:53:39.493Z,98159.13
2022-09-11T06:56:06.958Z,98155.53
2022-09-11T06:58:33.811Z,98155.47
2022-09-11T07:01:05.205Z,98160.94
2022-09-11T07:03:32.567Z,98155.16
2022-09-11T07:06:00.338Z,98161.34
2022-09-11T07:08:27.624Z,98160.31
2022-09-11T07:10:54.838Z,98162.00
2022-09-11T07:13:24.387Z,98159.47
2022-09-11T07:16:00.694Z,98155.84
2022-09-11T07:18:32.658Z,98159.16
2022-09-11T07:21:00.103Z,98156.34
2022-09-11T07:23:26.644Z,98156.97
2022-09-11T07:25:53.486Z,98155.72
2022-09-11T07:28:20.041Z,98151.25
2022-09-11T07:30:46.641Z,98150.56
2022-09-11T07:33:13.242Z,98154.19
2022-09-11T07:35:39.773Z,98154.91
2022-09-11T07:38:06.292Z,98149.81
2022-09-11T07:40:32.868Z,98148.19
2022-09-11T07:42:59.418Z,98147.50
2022-09-11T07:45:28.272Z,98155.38
2022-09-11T07:47:55.725Z,98153.56
2022-09-11T07:50:24.124Z,98159.31
2022-09-11T07:52:50.661Z,98161.81
2022-09-11T07:55:17.234Z,98166.94
2022-09-11T07:57:46.562Z,98163.41
2022-09-11T08:00:16.275Z,98165.38
2022-09-11T08:02:43.014Z,98163.50
2022-09-11T08:05:10.990Z,98162.94
2022-09-11T08:07:37.815Z,98165.69
2022-09-11T08:10:26.184Z,98166.94
2022-09-11T08:12:55.710Z,98162.44
2022-09-11T08:15:25.152Z,98159.41
2022-09-11T08:17:52.063Z,98163.63
2022-09-11T08:20:18.629Z,98162.63
2022-09-11T08:22:45.221Z,98170.94
2022-09-11T08:25:11.850Z,98180.56
2022-09-11T08:27:38.606Z,98175.31
2022-09-11T08:30:05.642Z,98178.03
2022-09-11T08:32:32.152Z,98180.44
2022-09-11T08:34:58.746Z,98181.75
2022-09-11T08:37:25.328Z,98179.13
2022-09-11T08:39:51.958Z,98185.94
2022-09-11T08:42:18.581Z,98188.91
2022-09-11T08:44:50.398Z,98185.56
2022-09-11T08:47:20.487Z,98187.81
2022-09-11T08:49:55.409Z,98188.91
2022-09-11T08:52:21.997Z,98185.69
2022-09-11T08:54:49.554Z,98184.63
2022-09-11T08:57:43.802Z,98191.97
2022-09-11T09:00:19.200Z,98187.47
2022-09-11T09:03:02.510Z,98186.84
2022-09-11T09:05:42.354Z,98182.59
2022-09-11T09:08:11.847Z,98184.66
2022-09-11T09:10:52.264Z,98179.09
2022-09-11T09:13:37.880Z,98179.09
2022-09-11T09:16:27.700Z,98177.03
2022-09-11T09:19:19.348Z,98170.75
2022-09-11T09:21:56.281Z,98170.88
2022-09-11T09:24:23.328Z,98164.75
2022-09-11T09:26:53.078Z,98163.13
2022-09-11T09:29:28.571Z,98165.03
2022-09-11T09:32:04.540Z,98159.88
2022-09-11T09:34:36.205Z,98166.06
2022-09-11T09:37:06.492Z,98162.31
2022-09-11T09:39:36.653Z,98159.50
2022-09-11T09:42:24.504Z,98163.03
2022-09-11T09:44:50.984Z,98162.22
2022-09-11T09:47:17.879Z,98162.66
2022-09-11T09:49:45.429Z,98161.63
2022-09-11T09:52:24.497Z,98159.38
2022-09-11T09:55:02.465Z,98161.84
2022-09-11T09:57:35.886Z,98161.63
2022-09-11T10:00:15.026Z,98160.81
2022-09-11T10:02:55.061Z,98154.03
2022-09-11T10:05:31.091Z,98155.34
2022-09-11T10:08:00.335Z,98149.00
2022-09-11T10:10:32.894Z,98144.25
2022-09-11T10:13:22.612Z,98147.38
2022-09-11T10:15:50.279Z,98138.41
2022-09-11T10:18:35.914Z,98141.63
2022-09-11T10:21:11.723Z,98134.50
2022-09-11T10:23:47.265Z,98143.63
2022-09-11T10:26:46.152Z,98137.28
2022-09-11T10:29:21.274Z,98136.34
2022-09-11T10:32:06.243Z,98125.03
2022-09-11T10:34:38.533Z,98134.53
2022-09-11T10:37:13.953Z,98133.97
2022-09-11T10:39:43.935Z,98137.00
2022-09-11T10:42:21.140Z,98135.81
2022-09-11T10:44:50.526Z,98125.59
2022-09-11T10:47:32.732Z,98132.44
2022-09-11T10:50:17.485Z,98134.75
2022-09-11T10:52:56.363Z,98131.47
2022-09-11T10:55:26.022Z,98134.75
2022-09-11T10:57:55.237Z,98125.47
2022-09-11T11:00:30.235Z,98122.84
2022-09-11T11:03:12.598Z,98127.91
2022-09-11T11:05:53.315Z,98130.88
2022-09-11T11:08:22.808Z,98130.44
2022-09-11T11:11:04.283Z,98127.06
2022-09-11T11:13:49.394Z,98123.44
2022-09-11T11:16:39.643Z,98120.75
2022-09-11T11:19:28.135Z,98116.09
2022-09-11T11:22:04.063Z,98115.22
2022-09-11T11:25:25.621Z,98113.03
2022-09-11T11:28:12.791Z,98118.16
2022-09-11T11:30:42.280Z,98116.63
2022-09-11T11:33:32.961Z,98114.97
2022-09-11T11:36:24.023Z,98112.31
2022-09-11T11:39:05.002Z,98109.53
2022-09-11T11:41:42.174Z,98106.03
2022-09-11T11:44:13.684Z,98101.00
2022-09-11T11:46:46.093Z,98118.69
2022-09-11T11:49:19.752Z,98117.00
2022-09-11T11:52:03.767Z,98127.00
2022-09-11T11:54:41.747Z,98137.97
2022-09-11T11:57:21.146Z,98139.31
2022-09-11T11:59:58.957Z,98143.78
2022-09-11T12:02:35.187Z,98133.31
2022-09-11T12:05:07.698Z,98131.09
2022-09-11T12:07:38.962Z,98128.25
2022-09-11T12:10:08.036Z,98131.94
2022-09-11T12:12:58.131Z,98129.78
2022-09-11T12:15:30.279Z,98130.63
2022-09-11T12:18:01.316Z,98128.94
2022-09-11T12:20:46.018Z,98127.88
2022-09-11T12:23:30.798Z,98134.16
2022-09-11T12:26:20.314Z,98122.63
2022-09-11T12:28:47.367Z,98118.94
2022-09-11T12:31:16.448Z,98112.50
2022-09-11T12:33:48.875Z,98112.53
2022-09-11T12:36:30.976Z,98119.00
2022-09-11T12:39:06.508Z,98113.59
2022-09-11T12:41:35.719Z,98112.34
2022-09-11T12:44:04.799Z,98109.88
2022-09-11T12:46:31.259Z,98114.75
2022-09-11T12:49:21.193Z,98106.03
2022-09-11T12:52:01.294Z,98096.00
2022-09-11T12:54:42.577Z,98095.78
2022-09-11T12:57:20.286Z,98098.16
2022-09-11T12:59:53.560Z,98093.88
2022-09-11T13:02:55.415Z,98084.81
2022-09-11T13:05:35.345Z,98084.09
2022-09-11T13:08:10.916Z,98097.09
2022-09-11T13:10:39.136Z,98079.19
2022-09-11T13:13:27.044Z,98084.56
2022-09-11T13:15:57.343Z,98079.31
2022-09-11T13:18:33.108Z,98081.34
2022-09-11T13:21:09.955Z,98088.13
2022-09-11T13:23:37.089Z,98081.34
2022-09-11T13:26:07.879Z,98095.78
2022-09-11T13:28:47.492Z,98097.22
2022-09-11T13:31:35.697Z,98100.72
2022-09-11T13:34:06.128Z,98100.00
2022-09-11T13:36:35.629Z,98096.88
2022-09-11T13:39:04.398Z,98099.63
2022-09-11T13:41:37.529Z,98097.78
2022-09-11T13:44:11.074Z,98091.94
2022-09-11T13:46:49.468Z,98098.66
2022-09-11T13:49:32.713Z,98097.03
2022-09-11T13:51:59.642Z,98109.72
2022-09-11T13:54:30.857Z,98106.41
2022-09-11T13:56:57.501Z,98110.16
2022-09-11T13:59:44.733Z,98114.06
2022-09-11T14:02:40.778Z,98108.72
2022-09-11T14:05:07.412Z,98109.34
2022-09-11T14:07:41.364Z,98110.56
2022-09-11T14:10:18.254Z,98114.09
2022-09-11T14:12:53.027Z,98111.00
2022-09-11T14:15:32.068Z,98110.81
2022-09-11T14:18:02.206Z,98103.09
2022-09-11T14:20:30.227Z,98120.00
2022-09-11T14:23:02.119Z,98119.63
2022-09-11T14:25:29.067Z,98123.25
2022-09-11T14:27:56.685Z,98131.16
2022-09-11T14:30:37.663Z,98132.28
2022-09-11T14:33:18.025Z,98146.66
2022-09-11T14:35:47.119Z,98140.47
2022-09-11T14:38:16.108Z,98142.88
2022-09-11T14:40:48.957Z,98147.56
2022-09-11T14:43:32.735Z,98152.75
2022-09-11T14:46:03.392Z,98161.81
2022-09-11T14:48:31.900Z,98161.41
2022-09-11T14:51:00.315Z,98155.38
2022-09-11T14:53:31.627Z,98151.50
2022-09-11T14:56:00.171Z,98152.16
2022-09-11T14:58:28.133Z,98146.13
2022-09-11T15:00:55.949Z,98152.13
2022-09-11T15:03:25.295Z,98155.03
2022-09-11T15:05:58.741Z,98158.13
2022-09-11T15:08:25.958Z,98155.16
2022-09-11T15:10:53.731Z,98150.47
2022-09-11T15:13:21.443Z,98139.28
2022-09-11T15:15:48.160Z,98146.31
2022-09-11T15:18:14.896Z,98139.75
2022-09-11T15:20:41.449Z,98142.09
2022-09-11T15:23:08.030Z,98143.94
2022-09-11T15:25:34.613Z,98139.53
2022-09-11T15:28:01.323Z,98141.69
2022-09-11T15:30:28.024Z,98147.59
2022-09-11T15:32:54.990Z,98149.00
2022-09-11T15:35:23.293Z,98150.00
2022-09-11T15:37:50.808Z,98161.13
2022-09-11T15:40:17.902Z,98162.88
2022-09-11T15:42:44.568Z,98179.81
2022-09-11T15:45:12.946Z,98172.56
2022-09-11T15:47:40.330Z,98178.91
2022-09-11T15:50:07.941Z,98179.66
2022-09-11T15:52:36.412Z,98177.31
2022-09-11T15:55:03.952Z,98180.97
2022-09-11T15:57:31.360Z,98172.19
2022-09-11T15:59:58.012Z,98182.56
2022-09-11T16:02:24.700Z,98183.75
2022-09-11T16:04:53.764Z,98185.38
2022-09-11T16:07:20.970Z,98179.91
2022-09-11T16:09:47.519Z,98179.09
2022-09-11T16:12:14.210Z,98172.38
2022-09-11T16:14:40.835Z,98168.06
2022-09-11T16:17:08.265Z,98175.00
2022-09-11T16:19:35.572Z,98179.19
2022-09-11T16:22:04.727Z,98172.31
2022-09-11T16:24:35.581Z,98170.41
2022-09-11T16:27:02.208Z,98178.81
2022-09-11T16:29:51.241Z,98174.25
2022-09-11T16:32:28.255Z,98169.03
2022-09-11T16:34:56.877Z,98172.66
2022-09-11T16:37:23.464Z,98169.88
2022-09-11T16:39:50.820Z,98174.72
2022-09-11T16:42:19.766Z,98168.22
2022-09-11T16:44:46.439Z,98181.03
2022-09-11T16:47:12.977Z,98179.56
2022-09-11T16:50:03.294Z,98175.53
2022-09-11T16:52:27.760Z,98176.50
2022-09-11T16:54:54.444Z,98181.81
2022-09-11T16:57:21.003Z,98175.72
2022-09-11T16:59:47.703Z,98174.88
2022-09-11T17:02:14.322Z,98169.47
2022-09-11T17:04:40.916Z,98166.78
2022-09-11T17:07:07.409Z,98169.47
2022-09-11T17:09:33.999Z,98164.91
2022-09-11T17:12:00.613Z,98162.56
2022-09-11T17:14:29.472Z,98168.63
2022-09-11T17:16:56.056Z,98173.00
2022-09-11T17:19:22.587Z,98171.91
2022-09-11T17:21:49.616Z,98179.44
2022-09-11T17:24:20.310Z,98178.75
2022-09-11T17:26:48.188Z,98183.66
2022-09-11T17:29:14.964Z,98185.50
2022-09-11T17:31:41.712Z,98193.59
2022-09-11T17:34:08.419Z,98200.63
2022-09-11T17:36:35.446Z,98197.13
2022-09-11T17:39:02.191Z,98205.00
2022-09-11T17:41:29.074Z,98205.84
2022-09-11T17:43:55.993Z,98212.09
2022-09-11T17:46:25.649Z,98212.75
2022-09-11T17:48:52.294Z,98217.78
2022-09-11T17:51:25.023Z,98217.13
2022-09-11T17:53:58.578Z,98226.38
2022-09-11T17:56:28.167Z,98226.34
2022-09-11T17:58:57.313Z,98226.69
2022-09-11T18:01:25.358Z,98231.97
2022-09-11T18:03:53.760Z,98230.53
2022-09-11T18:06:25.440Z,98241.88
2022-09-11T18:08:52.163Z,98245.56
2022-09-11T18:11:18.699Z,98241.13
2022-09-11T18:13:45.366Z,98235.06
2022-09-11T18:16:12.216Z,98241.28
2022-09-11T18:18:42.839Z,98237.06
2022-09-11T18:21:11.143Z,98246.66
2022-09-11T18:23:42.966Z,98252.63
2022-09-11T18:26:40.072Z,98254.63
2022-09-11T18:29:10.771Z,98260.91
2022-09-11T18:31:40.425Z,98258.56
2022-09-11T18:34:07.328Z,98259.53
2022-09-11T18:36:33.945Z,98272.31
2022-09-11T18:39:02.134Z,98264.34
2022-09-11T18:41:31.010Z,98267.34
2022-09-11T18:44:00.532Z,98277.16
2022-09-11T18:46:27.434Z,98267.34
2022-09-11T18:48:55.964Z,98271.34
2022-09-11T18:51:23.005Z,98274.47
2022-09-11T18:53:53.318Z,98278.81
2022-09-11T18:56:22.116Z,98272.94
2022-09-11T18:58:50.542Z,98276.69
2022-09-11T19:01:19.505Z,98278.28
2022-09-11T19:03:47.155Z,98273.41
2022-09-11T19:06:18.996Z,98282.19
2022-09-11T19:08:47.203Z,98281.13
2022-09-11T19:11:16.743Z,98277.75
2022-09-11T19:13:45.151Z,98277.06
2022-09-11T19:16:12.754Z,98280.59
2022-09-11T19:18:39.363Z,98283.53
2022-09-11T19:21:12.395Z,98282.03
2022-09-11T19:23:44.161Z,98291.19
2022-09-11T19:26:13.721Z,98286.13
2022-09-11T19:28:42.487Z,98289.63
2022-09-11T19:31:11.567Z,98288.97
2022-09-11T19:33:39.094Z,98297.03
2022-09-11T19:36:14.514Z,98295.44
2022-09-11T19:38:41.739Z,98291.28
2022-09-11T19:41:09.903Z,98300.16
2022-09-11T19:43:37.455Z,98291.28
2022-09-11T19:46:08.044Z,98302.94
2022-09-11T19:48:37.844Z,98304.03
2022-09-11T19:51:25.891Z,98297.97
2022-09-11T19:53:56.101Z,98294.44
2022-09-11T19:56:23.602Z,98301.50
2022-09-11T19:58:50.299Z,98302.75
2022-09-11T20:01:21.387Z,98293.47
2022-09-11T20:03:49.163Z,98304.78
2022-09-11T20:06:18.374Z,98295.41
2022-09-11T20:08:47.224Z,98296.47
2022-09-11T20:11:21.048Z,98286.09
2022-09-11T20:13:48.395Z,98286.09
2022-09-11T20:16:17.725Z,98286.97
2022-09-11T20:18:44.510Z,98287.13
2022-09-11T20:21:15.582Z,98288.88
2022-09-11T20:23:43.054Z,98284.53
2022-09-11T20:26:16.784Z,98281.84
2022-09-11T20:28:44.292Z,98289.31
2022-09-11T20:31:16.323Z,98282.56
2022-09-11T20:33:44.131Z,98274.63
2022-09-11T20:36:11.063Z,98273.78
2022-09-11T20:38:37.743Z,98271.13
2022-09-11T20:41:14.215Z,98270.38
2022-09-11T20:43:41.804Z,98276.34
2022-09-11T20:46:09.044Z,98273.63
2022-09-11T20:48:36.216Z,98277.75
2022-09-11T20:51:10.634Z,98272.84
2022-09-11T20:53:39.321Z,98279.59
2022-09-11T20:56:08.998Z,98288.84
2022-09-11T20:58:36.424Z,98290.47
2022-09-11T21:01:04.240Z,98288.75
2022-09-11T21:03:31.488Z,98287.88
2022-09-11T21:06:05.489Z,98289.41
2022-09-11T21:08:32.028Z,98288.34
2022-09-11T21:11:02.771Z,98283.22
2022-09-11T21:13:29.867Z,98296.28
2022-09-11T21:15:56.553Z,98294.44
2022-09-11T21:18:23.223Z,98288.34
2022-09-11T21:20:56.976Z,98289.25
2022-09-11T21:23:24.027Z,98278.59
2022-09-11T21:25:52.807Z,98282.78
2022-09-11T21:28:19.946Z,98293.47
2022-09-11T21:30:46.755Z,98297.75
2022-09-11T21:33:13.336Z,98301.34
2022-09-11T21:35:39.993Z,98304.16
2022-09-11T21:38:06.851Z,98298.53
2022-09-11T21:40:33.371Z,98301.59
2022-09-11T21:42:59.958Z,98306.16
2022-09-11T21:45:26.495Z,98304.38
2022-09-11T21:47:53.089Z,98312.19
2022-09-11T21:50:19.686Z,98305.38
2022-09-11T21:52:46.192Z,98311.44
2022-09-11T21:55:13.474Z,98309.53
2022-09-11T21:57:40.053Z,98317.59
2022-09-11T22:00:12.607Z,98316.53
2022-09-11T22:02:39.113Z,98320.97
2022-09-11T22:05:06.394Z,98319.47
2022-09-11T22:07:32.999Z,98318.56
2022-09-11T22:09:59.651Z,98316.06
2022-09-11T22:12:26.246Z,98315.69
2022-09-11T22:14:54.849Z,98318.16
2022-09-11T22:17:22.449Z,98317.78
2022-09-11T22:19:49.094Z,98322.81
2022-09-11T22:22:16.010Z,98320.38
2022-09-11T22:24:42.646Z,98325.44
2022-09-11T22:27:10.136Z,98327.16
2022-09-11T22:29:37.151Z,98328.88
2022-09-11T22:32:04.916Z,98320.78
2022-09-11T22:34:36.073Z,98322.53
2022-09-11T22:37:03.725Z,98320.94
2022-09-11T22:39:31.813Z,98323.25
2022-09-11T22:41:59.769Z,98324.09
2022-09-11T22:44:26.737Z,98321.56
2022-09-11T22:46:53.543Z,98321.34
2022-09-11T22:49:20.386Z,98322.22
2022-09-11T22:51:47.107Z,98314.56
2022-09-11T22:54:14.272Z,98313.56
2022-09-11T22:56:40.861Z,98312.63
2022-09-11T22:59:08.357Z,98309.13
2022-09-11T23:01:36.522Z,98314.41
2022-09-11T23:04:03.696Z,98314.41
2022-09-11T23:06:48.622Z,98317.09
2022-09-11T23:09:18.817Z,98310.47
2022-09-11T23:11:45.828Z,98324.38
2022-09-11T23:14:14.780Z,98313.22
2022-09-11T23:16:41.965Z,98310.88
2022-09-11T23:19:08.667Z,98315.25
2022-09-11T23:21:36.192Z,98321.66
2022-09-11T23:24:05.615Z,98329.38
2022-09-11T23:26:33.140Z,98325.88
2022-09-11T23:29:00.027Z,98325.16
2022-09-11T23:31:31.614Z,98319.84
2022-09-11T23:34:00.644Z,98323.94
2022-09-11T23:36:29.350Z,98327.31
2022-09-11T23:38:56.076Z,98325.56
2022-09-11T23:41:23.154Z,98321.97
2022-09-11T23:43:50.132Z,98324.66
2022-09-11T23:46:17.145Z,98320.38
2022-09-11T23:48:43.941Z,98321.38
2022-09-11T23:51:11.495Z,98323.09
2022-09-11T23:53:39.416Z,98319.97
2022-09-11T23:56:07.160Z,98311.22
2022-09-11T23:58:37.925Z,98315.63
